createdAt,value
2023-01-07T00:01:56.562Z,427.27
2023-01-07T00:04:28.940Z,145.73
2023-01-07T00:06:59.838Z,44.60
2023-01-07T00:09:29.613Z,312.70
2023-01-07T00:12:00.261Z,520.40
2023-01-07T00:14:30.570Z,405.70
2023-01-07T00:17:00.859Z,390.57
2023-01-07T00:19:33.635Z,314.70
2023-01-07T00:22:03.983Z,197.00
2023-01-07T00:24:33.777Z,327.27
2023-01-07T00:27:04.125Z,570.63
2023-01-07T00:29:33.978Z,224.03
2023-01-07T00:32:04.217Z,601.10
2023-01-07T00:34:39.104Z,485.40
2023-01-07T00:37:33.465Z,327.67
2023-01-07T00:40:03.531Z,57.93
2023-01-07T00:42:46.330Z,441.07
2023-01-07T00:45:16.141Z,272.57
2023-01-07T00:47:46.038Z,290.63
2023-01-07T00:50:18.633Z,214.73
2023-01-07T00:52:48.694Z,67.10
2023-01-07T00:55:18.859Z,172.03
2023-01-07T00:57:48.893Z,64.80
2023-01-07T01:00:21.400Z,148.00
2023-01-07T01:02:52.735Z,107.23
2023-01-07T01:05:25.785Z,272.93
2023-01-07T01:07:56.412Z,159.23
2023-01-07T01:10:26.268Z,74.20
2023-01-07T01:12:56.390Z,50.57
2023-01-07T01:15:26.642Z,79.70
2023-01-07T01:17:56.971Z,111.43
2023-01-07T01:20:29.394Z,540.00
2023-01-07T01:22:59.246Z,279.23
2023-01-07T01:25:29.071Z,236.07
2023-01-07T01:27:59.201Z,388.43
2023-01-07T01:30:29.221Z,363.77
2023-01-07T01:33:01.510Z,765.20
2023-01-07T01:35:35.167Z,588.80
2023-01-07T01:38:05.453Z,621.30
2023-01-07T01:40:36.165Z,774.97
2023-01-07T01:43:08.060Z,342.73
2023-01-07T01:45:38.055Z,294.20
2023-01-07T01:48:12.548Z,219.33
2023-01-07T01:50:48.666Z,828.40
2023-01-07T01:53:23.385Z,662.60
2023-01-07T01:56:00.039Z,229.77
2023-01-07T01:58:36.455Z,642.47
2023-01-07T02:01:07.327Z,654.97
2023-01-07T02:03:40.930Z,948.33
2023-01-07T02:06:21.194Z,577.00
2023-01-07T02:08:52.705Z,606.03
2023-01-07T02:11:36.763Z,461.93
2023-01-07T02:14:23.694Z,121.33
2023-01-07T02:17:01.513Z,397.00
2023-01-07T02:20:01.857Z,284.60
2023-01-07T02:22:58.137Z,334.43
2023-01-07T02:25:58.949Z,212.37
2023-01-07T02:28:52.416Z,327.40
2023-01-07T02:31:57.180Z,760.50
2023-01-07T02:34:32.272Z,352.83
2023-01-07T02:37:10.754Z,352.77
2023-01-07T02:39:51.159Z,362.33
2023-01-07T02:42:28.685Z,376.43
2023-01-07T02:45:05.579Z,620.27
2023-01-07T02:47:41.405Z,532.60
2023-01-07T02:50:11.870Z,721.93
2023-01-07T02:52:42.356Z,353.37
2023-01-07T02:55:16.926Z,331.60
2023-01-07T02:58:13.825Z,425.83
2023-01-07T03:01:13.991Z,391.63
2023-01-07T03:04:08.883Z,724.57
2023-01-07T03:06:56.834Z,685.37
2023-01-07T03:09:35.663Z,550.50
2023-01-07T03:12:14.435Z,455.97
2023-01-07T03:14:49.364Z,741.10
2023-01-07T03:17:34.316Z,336.13
2023-01-07T03:20:08.762Z,843.27
2023-01-07T03:22:41.537Z,726.70
2023-01-07T03:25:14.032Z,882.13
2023-01-07T03:27:45.459Z,871.50
2023-01-07T03:30:19.175Z,406.80
2023-01-07T03:32:55.146Z,415.50
2023-01-07T03:35:30.838Z,967.33
2023-01-07T03:38:04.592Z,977.70
2023-01-07T03:40:34.959Z,1040.93
2023-01-07T03:43:02.595Z,693.67
2023-01-07T03:45:34.297Z,561.03
2023-01-07T03:48:04.394Z,896.93
2023-01-07T03:50:42.312Z,406.37
2023-01-07T03:53:12.577Z,553.20
2023-01-07T03:55:47.466Z,469.93
2023-01-07T03:58:17.697Z,580.07
2023-01-07T04:00:48.152Z,812.07
2023-01-07T04:03:22.174Z,1025.33
2023-01-07T04:05:54.619Z,646.47
2023-01-07T04:08:27.151Z,777.73
2023-01-07T04:10:56.996Z,463.50
2023-01-07T04:13:27.623Z,947.97
2023-01-07T04:15:57.598Z,488.27
2023-01-07T04:18:28.913Z,720.07
2023-01-07T04:21:01.387Z,467.83
2023-01-07T04:23:31.233Z,484.50
2023-01-07T04:26:01.607Z,405.70
2023-01-07T04:28:32.223Z,512.93
2023-01-07T04:31:02.455Z,416.13
2023-01-07T04:33:34.031Z,385.40
2023-01-07T04:36:07.478Z,751.87
2023-01-07T04:38:37.989Z,651.07
2023-01-07T04:41:08.030Z,958.17
2023-01-07T04:43:38.580Z,605.80
2023-01-07T04:46:10.497Z,747.77
2023-01-07T04:48:41.097Z,258.13
2023-01-07T04:51:13.642Z,158.13
2023-01-07T04:53:43.759Z,313.40
2023-01-07T04:56:13.598Z,55.77
2023-01-07T04:58:44.222Z,68.20
2023-01-07T05:01:14.425Z,115.73
2023-01-07T05:03:45.563Z,119.53
2023-01-07T05:06:19.746Z,304.83
2023-01-07T05:08:50.955Z,620.03
2023-01-07T05:11:22.805Z,336.27
2023-01-07T05:13:56.194Z,517.90
2023-01-07T05:16:28.009Z,116.17
2023-01-07T05:19:03.054Z,65.63
2023-01-07T05:21:38.628Z,276.13
2023-01-07T05:24:09.792Z,31.73
2023-01-07T05:26:39.818Z,61.67
2023-01-07T05:29:12.034Z,24.07
2023-01-07T05:31:44.032Z,19.40
2023-01-07T05:34:16.620Z,18.30
2023-01-07T05:36:50.308Z,17.03
2023-01-07T05:39:20.525Z,24.23
2023-01-07T05:41:50.448Z,16.70
2023-01-07T05:44:21.114Z,90.97
2023-01-07T05:46:51.097Z,62.67
2023-01-07T05:49:21.422Z,39.40
2023-01-07T05:51:53.913Z,30.83
2023-01-07T05:54:24.473Z,185.67
2023-01-07T05:56:54.340Z,34.87
2023-01-07T05:59:25.124Z,25.10
2023-01-07T06:01:54.932Z,17.20
2023-01-07T06:04:24.753Z,23.23
2023-01-07T06:06:57.243Z,28.40
2023-01-07T06:09:30.252Z,16.07
2023-01-07T06:12:00.779Z,13.57
2023-01-07T06:14:30.926Z,16.10
2023-01-07T06:17:00.712Z,14.43
2023-01-07T06:19:31.350Z,19.40
2023-01-07T06:22:03.951Z,18.13
2023-01-07T06:24:34.976Z,12.90
2023-01-07T06:27:04.931Z,16.40
2023-01-07T06:29:35.018Z,18.40
2023-01-07T06:32:05.234Z,27.77
2023-01-07T06:34:36.213Z,22.57
2023-01-07T06:37:09.111Z,12.10
2023-01-07T06:39:39.268Z,17.13
2023-01-07T06:42:09.135Z,17.87
2023-01-07T06:44:39.743Z,25.23
2023-01-07T06:47:09.581Z,13.30
2023-01-07T06:49:39.559Z,11.00
2023-01-07T06:52:11.967Z,11.10
2023-01-07T06:54:43.141Z,11.33
2023-01-07T06:57:13.059Z,14.33
2023-01-07T06:59:43.070Z,10.67
2023-01-07T07:02:20.731Z,10.30
2023-01-07T07:04:51.663Z,12.07
2023-01-07T07:07:25.618Z,9.73
2023-01-07T07:09:55.700Z,10.43
2023-01-07T07:12:25.602Z,10.40
2023-01-07T07:14:56.463Z,10.07
2023-01-07T07:17:26.261Z,9.03
2023-01-07T07:19:56.414Z,13.27
2023-01-07T07:22:28.819Z,10.17
2023-01-07T07:24:59.310Z,13.33
2023-01-07T07:27:29.125Z,9.30
2023-01-07T07:29:59.228Z,9.30
2023-01-07T07:32:29.044Z,9.40
2023-01-07T07:34:59.903Z,8.87
2023-01-07T07:37:32.406Z,10.10
2023-01-07T07:40:02.554Z,8.23
2023-01-07T07:42:32.384Z,9.23
2023-01-07T07:45:22.738Z,8.70
2023-01-07T07:47:52.615Z,15.70
2023-01-07T07:50:22.434Z,9.83
2023-01-07T07:52:55.346Z,10.47
2023-01-07T07:55:26.563Z,11.50
2023-01-07T07:57:57.098Z,12.40
2023-01-07T08:00:27.931Z,9.20
2023-01-07T08:03:00.573Z,9.80
2023-01-07T08:05:31.676Z,11.63
2023-01-07T08:08:04.323Z,10.50
2023-01-07T08:10:34.523Z,10.17
2023-01-07T08:13:04.514Z,9.10
2023-01-07T08:15:35.469Z,7.90
2023-01-07T08:18:07.640Z,8.47
2023-01-07T08:20:38.870Z,7.70
2023-01-07T08:23:11.732Z,8.60
2023-01-07T08:25:41.983Z,8.03
2023-01-07T08:28:14.161Z,7.80
2023-01-07T08:30:45.829Z,6.27
2023-01-07T08:33:15.837Z,6.30
2023-01-07T08:35:47.433Z,7.13
2023-01-07T08:38:19.915Z,5.97
2023-01-07T08:40:50.556Z,6.43
2023-01-07T08:43:20.720Z,7.20
2023-01-07T08:45:52.143Z,5.43
2023-01-07T08:48:23.070Z,6.30
2023-01-07T08:50:55.045Z,6.67
2023-01-07T08:53:28.240Z,5.37
2023-01-07T08:55:58.817Z,6.30
2023-01-07T08:58:28.749Z,6.20
2023-01-07T09:01:03.908Z,5.27
2023-01-07T09:03:33.915Z,6.07
2023-01-07T09:06:04.327Z,5.10
2023-01-07T09:08:37.106Z,5.47
2023-01-07T09:11:07.451Z,5.50
2023-01-07T09:13:37.285Z,4.53
2023-01-07T09:16:08.676Z,5.60
2023-01-07T09:18:38.763Z,5.00
2023-01-07T09:21:09.007Z,4.90
2023-01-07T09:23:41.440Z,4.20
2023-01-07T09:26:11.775Z,4.83
2023-01-07T09:28:41.842Z,5.07
2023-01-07T09:31:12.161Z,3.90
2023-01-07T09:33:42.540Z,3.40
2023-01-07T09:36:12.801Z,3.90
2023-01-07T09:38:45.628Z,3.87
2023-01-07T09:41:31.363Z,4.40
2023-01-07T09:44:10.564Z,3.67
2023-01-07T09:46:41.075Z,4.00
2023-01-07T09:49:19.667Z,3.20
2023-01-07T09:51:56.053Z,3.70
2023-01-07T09:54:35.587Z,3.50
2023-01-07T09:57:06.382Z,3.50
2023-01-07T09:59:36.528Z,3.50
2023-01-07T10:02:24.520Z,3.90
2023-01-07T10:05:01.397Z,3.10
2023-01-07T10:07:38.068Z,3.17
2023-01-07T10:10:18.404Z,3.10
2023-01-07T10:12:54.184Z,2.80
2023-01-07T10:15:49.937Z,2.50
2023-01-07T10:18:33.374Z,2.70
2023-01-07T10:21:15.594Z,2.17
2023-01-07T10:23:48.827Z,2.20
2023-01-07T10:26:32.318Z,2.63
2023-01-07T10:29:09.621Z,2.57
2023-01-07T10:31:39.974Z,2.60
2023-01-07T10:34:16.994Z,2.00
2023-01-07T10:37:00.941Z,1.80
2023-01-07T10:39:43.483Z,2.50
2023-01-07T10:42:23.198Z,1.70
2023-01-07T10:45:19.134Z,1.70
2023-01-07T10:48:11.980Z,1.53
2023-01-07T10:51:00.963Z,1.57
2023-01-07T10:53:42.632Z,1.60
2023-01-07T10:56:24.437Z,1.27
2023-01-07T10:58:56.882Z,1.20
2023-01-07T11:01:30.476Z,1.23
2023-01-07T11:04:02.653Z,1.60
2023-01-07T11:06:50.669Z,1.33
2023-01-07T11:09:25.424Z,2.03
2023-01-07T11:11:58.966Z,1.30
2023-01-07T11:14:35.666Z,1.77
2023-01-07T11:17:13.152Z,1.60
2023-01-07T11:19:49.212Z,1.40
2023-01-07T11:22:33.816Z,1.10
2023-01-07T11:25:06.058Z,1.27
2023-01-07T11:27:38.053Z,1.07
2023-01-07T11:30:24.447Z,1.13
2023-01-07T11:33:01.095Z,1.10
2023-01-07T11:35:31.680Z,1.00
2023-01-07T11:38:03.318Z,1.03
2023-01-07T11:40:35.274Z,1.20
2023-01-07T11:43:07.540Z,0.90
2023-01-07T11:46:19.186Z,0.70
2023-01-07T11:48:45.843Z,0.77
2023-01-07T11:51:16.488Z,1.53
2023-01-07T11:53:48.881Z,1.00
2023-01-07T11:56:27.620Z,1.20
2023-01-07T11:59:26.234Z,1.00
2023-01-07T12:02:01.748Z,1.00
2023-01-07T12:04:33.398Z,1.10
2023-01-07T12:07:05.316Z,1.07
2023-01-07T12:09:40.288Z,0.90
2023-01-07T12:12:32.107Z,1.20
2023-01-07T12:15:03.320Z,1.53
2023-01-07T12:17:39.664Z,1.47
2023-01-07T12:20:35.817Z,1.03
2023-01-07T12:23:18.191Z,1.40
2023-01-07T12:26:00.839Z,1.10
2023-01-07T12:28:44.285Z,1.10
2023-01-07T12:31:34.646Z,0.80
2023-01-07T12:34:26.392Z,0.90
2023-01-07T12:37:02.486Z,1.00
2023-01-07T12:39:37.241Z,1.00
2023-01-07T12:42:12.057Z,1.37
2023-01-07T12:44:46.858Z,5.60
2023-01-07T12:47:31.764Z,0.90
2023-01-07T12:50:14.841Z,1.07
2023-01-07T12:52:50.009Z,0.87
2023-01-07T12:55:24.848Z,1.20
2023-01-07T12:58:04.377Z,1.17
2023-01-07T13:00:38.105Z,0.63
2023-01-07T13:03:21.408Z,0.80
2023-01-07T13:05:57.228Z,0.80
2023-01-07T13:08:38.402Z,1.23
2023-01-07T13:11:19.154Z,0.90
2023-01-07T13:13:53.429Z,1.23
2023-01-07T13:16:23.338Z,0.97
2023-01-07T13:18:53.692Z,0.70
2023-01-07T13:21:26.260Z,1.20
2023-01-07T13:24:12.064Z,1.57
2023-01-07T13:26:50.931Z,1.80
2023-01-07T13:29:40.545Z,0.80
2023-01-07T13:32:23.487Z,0.97
2023-01-07T13:35:10.449Z,0.80
2023-01-07T13:38:01.658Z,0.80
2023-01-07T13:40:50.609Z,0.70
2023-01-07T13:43:36.742Z,1.27
2023-01-07T13:46:11.535Z,0.90
2023-01-07T13:48:44.376Z,1.33
2023-01-07T13:51:14.557Z,0.80
2023-01-07T13:53:50.343Z,0.80
2023-01-07T13:56:38.637Z,1.00
2023-01-07T13:59:33.631Z,1.20
2023-01-07T14:02:28.361Z,1.00
2023-01-07T14:05:08.547Z,0.93
2023-01-07T14:07:48.818Z,0.93
2023-01-07T14:10:31.247Z,1.43
2023-01-07T14:13:15.109Z,1.00
2023-01-07T14:15:56.329Z,1.33
2023-01-07T14:19:02.103Z,1.20
2023-01-07T14:21:53.407Z,1.30
2023-01-07T14:24:53.225Z,1.13
2023-01-07T14:27:43.835Z,1.53
2023-01-07T14:30:23.250Z,1.50
2023-01-07T14:33:03.309Z,1.50
2023-01-07T14:35:36.815Z,1.33
2023-01-07T14:38:37.003Z,1.10
2023-01-07T14:41:09.967Z,1.60
2023-01-07T14:44:05.099Z,1.20
2023-01-07T14:46:56.046Z,1.50
2023-01-07T14:49:59.168Z,2.47
2023-01-07T14:52:53.169Z,0.97
2023-01-07T14:55:48.603Z,1.30
2023-01-07T14:58:49.787Z,1.63
2023-01-07T15:02:02.335Z,1.13
2023-01-07T15:05:03.300Z,0.97
2023-01-07T15:07:38.735Z,1.23
2023-01-07T15:10:33.394Z,29.37
2023-01-07T15:13:16.796Z,1.20
2023-01-07T15:16:04.521Z,1.67
2023-01-07T15:18:49.713Z,1.10
2023-01-07T15:21:32.459Z,1.17
2023-01-07T15:24:10.463Z,1.50
2023-01-07T15:26:47.257Z,1.73
2023-01-07T15:29:28.296Z,3.00
2023-01-07T15:32:06.326Z,1.73
2023-01-07T15:34:42.851Z,1.27
2023-01-07T15:37:17.190Z,1.70
2023-01-07T15:39:49.754Z,1.70
2023-01-07T15:42:23.313Z,1.50
2023-01-07T15:44:56.473Z,1.33
2023-01-07T15:47:35.982Z,1.50
2023-01-07T15:50:34.270Z,1.50
2023-01-07T15:53:07.122Z,1.50
2023-01-07T15:55:41.101Z,1.13
2023-01-07T15:58:18.757Z,1.27
2023-01-07T16:00:53.015Z,2.03
2023-01-07T16:03:25.018Z,1.70
2023-01-07T16:05:59.315Z,1.90
2023-01-07T16:08:32.142Z,1.37
2023-01-07T16:11:04.217Z,1.67
2023-01-07T16:13:36.934Z,1.07
2023-01-07T16:16:07.897Z,1.03
2023-01-07T16:18:38.136Z,1.30
2023-01-07T16:21:15.001Z,2.40
2023-01-07T16:23:46.277Z,1.60
2023-01-07T16:26:21.018Z,1.10
2023-01-07T16:28:54.972Z,1.03
2023-01-07T16:31:27.856Z,1.73
2023-01-07T16:34:00.613Z,0.90
2023-01-07T16:36:35.232Z,1.40
2023-01-07T16:39:16.895Z,1.20
2023-01-07T16:41:47.165Z,1.00
2023-01-07T16:45:00.278Z,0.80
2023-01-07T16:47:31.746Z,1.43
2023-01-07T16:50:28.324Z,0.87
2023-01-07T16:53:01.216Z,0.97
2023-01-07T16:55:50.347Z,1.20
2023-01-07T16:58:29.347Z,0.97
2023-01-07T17:01:01.171Z,0.97
2023-01-07T17:03:33.439Z,1.00
2023-01-07T17:06:07.323Z,1.00
2023-01-07T17:08:40.614Z,0.90
2023-01-07T17:11:23.913Z,1.03
2023-01-07T17:13:54.187Z,1.00
2023-01-07T17:16:30.744Z,1.47
2023-01-07T17:19:22.703Z,2.50
2023-01-07T17:21:53.231Z,1.40
2023-01-07T17:24:48.448Z,1.33
2023-01-07T17:27:28.229Z,1.93
2023-01-07T17:29:59.062Z,1.30
2023-01-07T17:32:29.779Z,1.17
2023-01-07T17:35:04.418Z,1.90
2023-01-07T17:37:40.313Z,1.47
2023-01-07T17:40:14.551Z,1.53
2023-01-07T17:42:57.567Z,1.27
2023-01-07T17:45:28.818Z,1.73
2023-01-07T17:48:01.086Z,1.60
2023-01-07T17:50:37.519Z,1.90
2023-01-07T17:53:07.782Z,2.00
2023-01-07T17:55:40.594Z,2.80
2023-01-07T17:58:22.120Z,1.93
2023-01-07T18:00:52.650Z,2.13
2023-01-07T18:03:22.553Z,1.90
2023-01-07T18:05:52.984Z,1.60
2023-01-07T18:08:23.001Z,2.47
2023-01-07T18:11:10.076Z,2.00
2023-01-07T18:13:40.288Z,2.17
2023-01-07T18:16:13.582Z,3.40
2023-01-07T18:18:44.213Z,2.00
2023-01-07T18:21:14.794Z,1.87
2023-01-07T18:23:46.281Z,2.10
2023-01-07T18:26:19.361Z,2.73
2023-01-07T18:28:50.410Z,2.13
2023-01-07T18:31:21.035Z,2.20
2023-01-07T18:33:52.513Z,2.20
2023-01-07T18:36:22.384Z,2.30
2023-01-07T18:38:53.288Z,1.90
2023-01-07T18:41:25.636Z,2.40
2023-01-07T18:43:56.105Z,2.10
2023-01-07T18:46:25.874Z,1.77
2023-01-07T18:48:57.105Z,1.87
2023-01-07T18:51:26.860Z,2.20
2023-01-07T18:53:57.186Z,2.53
2023-01-07T18:56:29.544Z,2.17
2023-01-07T18:58:59.920Z,2.20
2023-01-07T19:01:29.875Z,2.17
2023-01-07T19:03:59.794Z,2.70
2023-01-07T19:06:29.752Z,2.00
2023-01-07T19:08:59.570Z,2.23
2023-01-07T19:11:32.327Z,1.93
2023-01-07T19:14:02.084Z,4.00
2023-01-07T19:16:32.484Z,2.33
2023-01-07T19:19:02.795Z,2.13
2023-01-07T19:21:33.055Z,2.10
2023-01-07T19:24:04.682Z,2.40
2023-01-07T19:26:37.047Z,2.23
2023-01-07T19:29:07.222Z,2.00
2023-01-07T19:31:37.481Z,2.40
2023-01-07T19:34:07.665Z,2.70
2023-01-07T19:36:38.100Z,1.93
2023-01-07T19:39:07.988Z,2.50
2023-01-07T19:41:40.853Z,2.40
2023-01-07T19:44:10.696Z,1.90
2023-01-07T19:46:41.210Z,2.00
2023-01-07T19:49:12.006Z,2.20
2023-01-07T19:51:44.135Z,2.23
2023-01-07T19:54:16.719Z,2.40
2023-01-07T19:56:49.154Z,2.50
2023-01-07T19:59:19.465Z,2.03
2023-01-07T20:01:49.966Z,2.10
2023-01-07T20:04:20.049Z,1.93
2023-01-07T20:06:50.615Z,4.20
2023-01-07T20:09:20.989Z,2.43
2023-01-07T20:11:53.419Z,2.23
2023-01-07T20:14:24.371Z,2.23
2023-01-07T20:16:54.285Z,2.70
2023-01-07T20:19:25.518Z,4.03
2023-01-07T20:22:03.473Z,2.00
2023-01-07T20:24:34.114Z,2.10
2023-01-07T20:27:07.487Z,2.10
2023-01-07T20:29:41.351Z,2.10
2023-01-07T20:32:13.725Z,2.53
2023-01-07T20:34:45.480Z,1.90
2023-01-07T20:37:17.774Z,2.60
2023-01-07T20:39:51.402Z,2.77
2023-01-07T20:42:23.967Z,2.17
2023-01-07T20:44:54.475Z,2.13
2023-01-07T20:47:24.928Z,2.53
2023-01-07T20:49:57.918Z,2.60
2023-01-07T20:52:27.987Z,2.37
2023-01-07T20:55:03.082Z,2.40
2023-01-07T20:57:36.202Z,2.63
2023-01-07T21:00:06.959Z,2.77
2023-01-07T21:02:40.723Z,2.30
2023-01-07T21:05:12.389Z,2.80
2023-01-07T21:07:43.403Z,2.53
2023-01-07T21:10:13.609Z,2.37
2023-01-07T21:12:46.349Z,2.00
2023-01-07T21:15:21.403Z,2.50
2023-01-07T21:17:51.338Z,3.23
2023-01-07T21:20:21.550Z,2.50
2023-01-07T21:22:51.864Z,2.20
2023-01-07T21:25:36.109Z,2.40
2023-01-07T21:28:12.198Z,2.90
2023-01-07T21:30:42.723Z,2.50
2023-01-07T21:33:16.118Z,2.53
2023-01-07T21:35:46.093Z,2.40
2023-01-07T21:38:24.735Z,3.27
2023-01-07T21:40:54.822Z,2.50
2023-01-07T21:43:28.866Z,2.30
2023-01-07T21:46:03.393Z,2.80
2023-01-07T21:48:35.104Z,3.27
2023-01-07T21:51:06.441Z,2.20
2023-01-07T21:53:37.923Z,2.70
2023-01-07T21:56:09.787Z,2.50
2023-01-07T21:58:42.269Z,2.50
2023-01-07T22:01:13.354Z,3.10
2023-01-07T22:03:46.191Z,2.80
2023-01-07T22:06:22.483Z,3.00
2023-01-07T22:08:58.158Z,3.33
2023-01-07T22:11:29.588Z,2.67
2023-01-07T22:14:02.833Z,2.27
2023-01-07T22:16:34.651Z,3.33
2023-01-07T22:19:04.709Z,2.43
2023-01-07T22:21:37.497Z,2.93
2023-01-07T22:24:07.848Z,3.27
2023-01-07T22:26:53.729Z,3.00
2023-01-07T22:29:29.225Z,3.07
2023-01-07T22:31:59.716Z,3.03
2023-01-07T22:34:30.264Z,3.13
2023-01-07T22:37:06.227Z,2.50
2023-01-07T22:39:39.590Z,2.57
2023-01-07T22:42:25.437Z,3.93
2023-01-07T22:45:05.124Z,3.30
2023-01-07T22:47:42.477Z,3.53
2023-01-07T22:50:32.896Z,3.10
2023-01-07T22:53:03.195Z,2.90
2023-01-07T22:55:41.646Z,2.80
2023-01-07T22:58:22.749Z,3.13
2023-01-07T23:01:13.451Z,3.30
2023-01-07T23:03:47.667Z,3.80
2023-01-07T23:06:25.416Z,3.10
2023-01-07T23:08:55.749Z,2.83
2023-01-07T23:11:38.667Z,3.40
2023-01-07T23:14:08.431Z,3.73
2023-01-07T23:16:42.088Z,3.13
2023-01-07T23:19:11.945Z,3.50
2023-01-07T23:21:44.062Z,3.73
2023-01-07T23:24:15.934Z,3.47
2023-01-07T23:26:46.808Z,3.70
2023-01-07T23:29:16.907Z,4.03
2023-01-07T23:31:52.538Z,3.43
2023-01-07T23:34:23.879Z,3.07
2023-01-07T23:36:55.930Z,3.27
2023-01-07T23:39:27.529Z,3.33
2023-01-07T23:41:58.494Z,3.43
2023-01-07T23:44:28.472Z,3.20
2023-01-07T23:47:02.671Z,3.00
2023-01-07T23:49:32.582Z,3.53
2023-01-07T23:52:05.711Z,3.23
2023-01-07T23:54:35.662Z,3.07
2023-01-07T23:57:07.971Z,3.10
2023-01-07T23:59:38.089Z,3.00
